Time;durP1;ratioP1;P1;durP2;ratioP2;P2;SDS_P1;SDS_P2;PMS_P1;PMS_P2;Temp;Humidity;BMP_temperature;BMP_pressure;BME280_temperature;BME280_humidity;BME280_pressure;Samples;Min_cycle;Max_cycle;Signal;HPM_P1;HPM_P2
2022/11/14 00:00:49;;;;;;;20.75;9.80;;;;;;;3.88;97.93;95752.81;5116839;27;20240;-76
2022/11/14 00:03:16;;;;;;;18.50;9.48;;;;;;;3.93;97.32;95761.72;5122679;27;20563;-76
2022/11/14 00:05:44;;;;;;;20.90;9.23;;;;;;;3.84;96.97;95759.75;5096138;28;20259;-77
2022/11/14 00:08:16;;;;;;;21.25;8.75;;;;;;;3.68;97.71;95763.41;5123772;27;20254;-77
2022/11/14 00:10:44;;;;;;;14.90;8.02;;;;;;;3.64;98.20;95764.97;5124000;27;20257;-76
2022/11/14 00:13:13;;;;;;;15.55;7.85;;;;;;;3.80;97.76;95761.34;5118183;27;20224;-77
2022/11/14 00:15:39;;;;;;;30.13;11.18;;;;;;;3.86;97.52;95766.47;5114118;27;20197;-77
2022/11/14 00:18:07;;;;;;;20.75;9.32;;;;;;;3.81;96.05;95763.78;5097702;28;20475;-77
2022/11/14 00:20:34;;;;;;;16.38;8.85;;;;;;;3.78;96.32;95752.75;5123553;27;20207;-77
2022/11/14 00:23:00;;;;;;;18.42;9.27;;;;;;;3.82;96.00;95753.84;5108630;28;20606;-77
2022/11/14 00:25:27;;;;;;;17.65;9.35;;;;;;;3.83;96.51;95752.75;5109491;28;20223;-77
2022/11/14 00:27:57;;;;;;;16.30;7.57;;;;;;;3.89;96.56;95754.44;5119014;28;20257;-77
2022/11/14 00:30:25;;;;;;;17.25;8.27;;;;;;;3.88;96.36;95763.53;5117006;27;20205;-77
2022/11/14 00:32:52;;;;;;;34.75;20.15;;;;;;;3.71;94.72;95763.66;5120477;27;20637;-77
2022/11/14 00:35:19;;;;;;;18.17;8.63;;;;;;;3.60;95.82;95759.31;5123628;28;20250;-79
2022/11/14 00:37:45;;;;;;;19.50;8.05;;;;;;;3.60;95.86;95756.63;5119006;27;20201;-77
2022/11/14 00:40:13;;;;;;;19.05;8.80;;;;;;;3.71;96.03;95755.63;5131783;27;20197;-77
2022/11/14 00:42:40;;;;;;;20.73;8.45;;;;;;;3.73;96.04;95750.81;5114246;28;20676;-76
2022/11/14 00:45:07;;;;;;;17.73;8.95;;;;;;;3.73;97.02;95755.38;5131669;27;20204;-78
2022/11/14 00:47:35;;;;;;;21.88;9.07;;;;;;;3.78;97.42;95752.75;5135347;27;20193;-76
2022/11/14 00:50:02;;;;;;;17.63;9.32;;;;;;;3.79;97.45;95754.38;5115673;27;20194;-76
2022/11/14 00:52:29;;;;;;;16.35;8.82;;;;;;;3.73;96.95;95750.03;5114162;28;20225;-76
2022/11/14 00:54:56;;;;;;;17.75;8.98;;;;;;;3.77;97.23;95745.78;5105158;27;20196;-77
2022/11/14 00:57:23;;;;;;;22.45;10.20;;;;;;;3.84;97.22;95762.41;5122697;27;20251;-78
2022/11/14 00:59:54;;;;;;;18.27;10.02;;;;;;;3.79;96.87;95752.50;5099881;28;20270;-79
2022/11/14 01:02:21;;;;;;;18.75;8.20;;;;;;;3.76;96.36;95749.50;5126417;27;20247;-77
2022/11/14 01:04:49;;;;;;;27.77;10.27;;;;;;;3.80;96.30;95750.63;5120699;27;20201;-77
2022/11/14 01:07:16;;;;;;;14.63;8.02;;;;;;;3.75;95.36;95753.25;5120883;27;20251;-77
2022/11/14 01:09:43;;;;;;;12.88;7.15;;;;;;;3.65;95.42;95750.50;5134274;27;20254;-77
2022/11/14 01:12:09;;;;;;;15.40;7.30;;;;;;;3.71;95.26;95744.09;5120716;27;20225;-77
2022/11/14 01:14:36;;;;;;;11.15;5.53;;;;;;;3.65;95.48;95745.97;5127408;27;20265;-77
2022/11/14 01:17:03;;;;;;;19.88;7.63;;;;;;;3.60;96.05;95745.09;5127550;27;20205;-77
2022/11/14 01:19:30;;;;;;;22.52;7.38;;;;;;;3.68;96.47;95747.31;5120666;27;20201;-77
2022/11/14 01:21:58;;;;;;;14.10;7.07;;;;;;;3.68;96.64;95741.97;5119864;27;20734;-77
2022/11/14 01:24:25;;;;;;;17.05;7.05;;;;;;;3.71;96.86;95736.06;5120718;27;20253;-77
2022/11/14 01:26:54;;;;;;;10.45;6.68;;;;;;;3.76;97.08;95739.59;5120326;27;20826;-76
2022/11/14 01:29:21;;;;;;;14.13;7.40;;;;;;;3.84;96.55;95735.63;5125064;27;20255;-78
2022/11/14 01:31:48;;;;;;;13.93;7.05;;;;;;;3.69;95.75;95730.19;5126682;27;20229;-78
2022/11/14 01:34:15;;;;;;;15.27;8.40;;;;;;;3.61;95.44;95731.44;5112265;28;20233;-77
2022/11/14 01:36:41;;;;;;;19.10;8.73;;;;;;;3.49;95.30;95723.59;5114009;28;20633;-76
2022/11/14 01:39:09;;;;;;;14.82;7.60;;;;;;;3.44;95.39;95726.22;5123442;27;20201;-77
2022/11/14 01:41:36;;;;;;;13.98;7.50;;;;;;;3.42;94.40;95722.97;5113885;28;20198;-77
2022/11/14 01:44:11;;;;;;;18.05;7.00;;;;;;;3.40;94.24;95722.47;5122262;27;20752;-76
2022/11/14 01:46:42;;;;;;;16.67;7.93;;;;;;;3.37;94.78;95724.84;5129080;28;20221;-76
2022/11/14 01:49:16;;;;;;;17.23;7.15;;;;;;;3.28;94.70;95716.44;5121074;27;20254;-77
2022/11/14 01:51:47;;;;;;;30.90;17.02;;;;;;;3.37;94.77;95709.56;5106273;28;20243;-77
2022/11/14 01:54:22;;;;;;;31.88;17.60;;;;;;;3.39;94.68;95712.81;5103693;28;20243;-77
2022/11/14 01:56:52;;;;;;;34.47;18.90;;;;;;;3.21;95.80;95705.16;5105603;28;20188;-77
2022/11/14 01:59:23;;;;;;;37.03;19.60;;;;;;;3.24;95.37;95703.84;5118319;27;20214;-76
2022/11/14 02:01:52;;;;;;;40.05;20.63;;;;;;;3.16;96.46;95710.44;5120086;28;20223;-77
2022/11/14 02:04:23;;;;;;;41.25;19.60;;;;;;;3.18;97.13;95705.66;5118964;27;20255;-77
2022/11/14 02:06:51;;;;;;;37.20;19.45;;;;;;;3.28;97.35;95699.59;5122565;27;20194;-77
2022/11/14 02:09:19;;;;;;;18.25;9.20;;;;;;;3.29;97.24;95696.63;5128451;28;20617;-77
2022/11/14 02:11:47;;;;;;;18.88;7.95;;;;;;;3.31;97.11;95697.19;5132535;27;20605;-77
2022/11/14 02:14:13;;;;;;;21.70;10.05;;;;;;;3.35;96.87;95700.97;5118282;27;20485;-76
2022/11/14 02:16:42;;;;;;;16.70;7.82;;;;;;;3.39;96.64;95695.94;5122024;27;20246;-76
2022/11/14 02:19:09;;;;;;;16.48;8.80;;;;;;;3.27;97.17;95688.06;5125354;28;20202;-77
2022/11/14 02:21:37;;;;;;;15.02;6.82;;;;;;;3.25;97.13;95692.88;5122283;28;20695;-77
2022/11/14 02:24:08;;;;;;;13.73;8.90;;;;;;;3.26;97.08;95691.81;5127610;27;20209;-77
2022/11/14 02:26:35;;;;;;;18.30;8.98;;;;;;;3.13;96.88;95698.41;5122456;28;20189;-77
2022/11/14 02:29:02;;;;;;;14.40;7.45;;;;;;;3.35;96.19;95692.13;5118347;27;20197;-77
2022/11/14 02:31:29;;;;;;;13.52;7.82;;;;;;;3.42;96.65;95696.19;5084367;27;1227420;-76
2022/11/14 02:33:56;;;;;;;23.73;9.25;;;;;;;3.23;97.36;95692.31;5116502;27;20212;-76
2022/11/14 02:36:23;;;;;;;21.20;9.48;;;;;;;3.00;97.73;95676.59;5121297;27;20713;-77
2022/11/14 02:38:51;;;;;;;18.30;8.45;;;;;;;3.03;97.56;95700.16;5120468;27;20206;-76
2022/11/14 02:41:18;;;;;;;17.83;8.93;;;;;;;3.04;97.31;95696.41;5091477;28;20654;-76
2022/11/14 02:43:44;;;;;;;18.58;7.95;;;;;;;2.98;97.96;95692.91;5124184;27;20707;-76
2022/11/14 02:46:11;;;;;;;19.48;8.07;;;;;;;3.01;98.42;95694.25;5124711;27;20201;-75
2022/11/14 02:48:38;;;;;;;17.13;8.05;;;;;;;3.05;98.82;95687.31;5105695;27;20275;-76
2022/11/14 02:51:05;;;;;;;17.80;8.00;;;;;;;3.09;99.31;95686.56;5104918;28;20568;-76
2022/11/14 02:53:32;;;;;;;20.90;8.40;;;;;;;2.91;99.40;95684.25;5105153;27;20224;-76
2022/11/14 02:56:00;;;;;;;18.38;7.60;;;;;;;2.79;100.00;95687.09;5118538;27;20202;-77
2022/11/14 02:58:27;;;;;;;16.65;7.13;;;;;;;2.81;100.00;95687.66;5124770;27;20198;-77
2022/11/14 03:00:53;;;;;;;19.00;7.70;;;;;;;2.78;100.00;95680.13;5125853;27;20205;-77
2022/11/14 03:03:20;;;;;;;17.23;8.38;;;;;;;2.63;100.00;95688.00;5123386;27;20263;-77
2022/11/14 03:05:47;;;;;;;19.85;8.15;;;;;;;2.61;100.00;95678.59;5124409;27;20258;-77
2022/11/14 03:08:14;;;;;;;16.88;8.63;;;;;;;2.63;100.00;95679.16;5119415;27;20246;-76
2022/11/14 03:10:40;;;;;;;16.38;8.82;;;;;;;2.80;100.00;95682.53;5117801;27;20206;-76
2022/11/14 03:13:08;;;;;;;17.65;9.43;;;;;;;2.99;100.00;95683.00;5123812;27;20225;-77
2022/11/14 03:15:37;;;;;;;18.38;8.60;;;;;;;3.02;99.21;95679.81;5125219;27;20269;-76
2022/11/14 03:18:04;;;;;;;19.48;8.80;;;;;;;3.04;97.89;95678.50;5120015;27;20250;-76
2022/11/14 03:20:31;;;;;;;15.43;8.45;;;;;;;3.03;97.00;95684.09;5116241;27;20598;-75
2022/11/14 03:22:57;;;;;;;20.73;9.90;;;;;;;3.00;96.46;95681.94;5119919;27;20340;-77
2022/11/14 03:25:24;;;;;;;23.55;10.05;;;;;;;2.87;96.89;95677.00;5116000;27;20664;-77
2022/11/14 03:27:51;;;;;;;25.63;10.30;;;;;;;2.87;97.93;95682.34;5119847;27;20193;-75
2022/11/14 03:30:19;;;;;;;15.73;8.50;;;;;;;2.84;95.80;95681.81;5115934;27;20202;-75
2022/11/14 03:32:46;;;;;;;23.63;9.48;;;;;;;2.77;95.17;95678.50;5110644;28;20238;-77
2022/11/14 03:35:13;;;;;;;15.73;7.75;;;;;;;2.77;96.02;95683.84;5125028;27;20201;-76
2022/11/14 03:37:39;;;;;;;15.63;7.68;;;;;;;2.82;96.32;95686.59;5120503;27;20197;-77
2022/11/14 03:40:08;;;;;;;18.55;9.48;;;;;;;2.88;96.90;95670.56;5118306;27;20589;-77
2022/11/14 03:42:35;;;;;;;19.05;8.77;;;;;;;2.75;97.70;95669.13;5121350;27;20660;-75
2022/11/14 03:45:02;;;;;;;18.98;8.93;;;;;;;2.71;98.07;95674.19;5127985;27;20609;-77
2022/11/14 03:47:30;;;;;;;25.33;9.50;;;;;;;2.56;99.34;95671.34;5121120;27;20676;-76
2022/11/14 03:49:56;;;;;;;14.00;8.02;;;;;;;2.50;98.48;95677.69;5114428;27;20216;-76
2022/11/14 03:52:24;;;;;;;17.83;8.77;;;;;;;2.42;96.92;95670.94;5120141;27;20213;-77
2022/11/14 03:54:51;;;;;;;33.13;17.38;;;;;;;2.23;96.89;95671.47;5125035;27;20232;-77
2022/11/14 03:57:18;;;;;;;39.63;20.75;;;;;;;2.07;98.40;95673.16;5121814;27;20246;-77
2022/11/14 03:59:45;;;;;;;41.25;21.80;;;;;;;1.95;99.40;95675.16;5114854;27;20204;-76
2022/11/14 04:02:11;;;;;;;45.85;20.88;;;;;;;1.80;100.00;95675.75;5119740;27;20206;-77
2022/11/14 04:04:40;;;;;;;50.70;22.42;;;;;;;1.74;100.00;95679.41;5124029;27;20205;-76
2022/11/14 04:07:06;;;;;;;47.65;22.90;;;;;;;1.82;100.00;95680.84;5099149;28;20474;-76
2022/11/14 04:09:33;;;;;;;43.40;20.83;;;;;;;1.75;100.00;95676.50;5127525;27;20250;-76
2022/11/14 04:12:00;;;;;;;38.60;18.85;;;;;;;1.91;100.00;95674.84;5130342;27;20648;-76
2022/11/14 04:14:26;;;;;;;45.08;21.75;;;;;;;1.97;100.00;95676.53;5106790;27;20233;-75
2022/11/14 04:16:53;;;;;;;50.08;22.10;;;;;;;2.09;100.00;95669.19;5102386;28;20201;-78
2022/11/14 04:19:20;;;;;;;48.80;20.83;;;;;;;2.12;100.00;95670.56;5115652;27;20189;-77
2022/11/14 04:21:48;;;;;;;43.88;20.08;;;;;;;2.09;100.00;95671.84;5118516;27;20672;-77
2022/11/14 04:24:15;;;;;;;59.45;22.63;;;;;;;2.09;100.00;95676.41;5124585;27;20221;-77
2022/11/14 04:26:41;;;;;;;44.33;19.45;;;;;;;1.89;99.92;95666.28;5097468;28;20210;-76
2022/11/14 04:29:08;;;;;;;38.28;18.90;;;;;;;1.93;99.34;95667.38;5114922;28;20799;-77
2022/11/14 04:31:35;;;;;;;56.20;20.52;;;;;;;1.91;99.45;95669.50;5117192;27;20251;-77
2022/11/14 04:34:02;;;;;;;25.25;12.63;;;;;;;2.09;98.87;95671.84;5124089;28;20214;-78
2022/11/14 04:36:29;;;;;;;27.45;8.82;;;;;;;2.23;98.09;95666.13;5123113;28;20204;-79
2022/11/14 04:38:57;;;;;;;20.08;8.32;;;;;;;2.34;97.75;95671.34;5105037;27;20214;-77
2022/11/14 04:41:23;;;;;;;27.55;8.65;;;;;;;2.40;98.11;95672.22;5089972;28;20206;-77
2022/11/14 04:43:50;;;;;;;19.38;8.27;;;;;;;2.47;97.66;95652.25;5116245;28;20273;-78
2022/11/14 04:46:17;;;;;;;15.63;8.18;;;;;;;2.44;97.15;95668.00;5117757;27;20205;-77
2022/11/14 04:48:44;;;;;;;26.42;10.10;;;;;;;2.44;96.81;95663.47;5096938;28;20213;-77
2022/11/14 04:51:11;;;;;;;13.07;6.30;;;;;;;2.45;96.81;95670.44;5123596;28;20193;-76
2022/11/14 04:53:37;;;;;;;19.10;8.35;;;;;;;2.56;96.63;95659.84;5117730;28;20228;-76
2022/11/14 04:56:06;;;;;;;11.50;7.60;;;;;;;2.52;96.47;95659.53;5117363;27;20605;-74
2022/11/14 04:58:33;;;;;;;17.75;7.82;;;;;;;2.49;96.24;95658.16;5122428;27;20544;-77
2022/11/14 05:00:59;;;;;;;13.85;6.78;;;;;;;2.25;95.81;95658.69;5123952;28;20209;-77
2022/11/14 05:03:26;;;;;;;17.40;8.00;;;;;;;2.07;96.33;95655.25;5104576;28;20206;-74
2022/11/14 05:05:53;;;;;;;13.73;7.60;;;;;;;1.97;96.57;95655.16;5091706;28;20627;-75
2022/11/14 05:08:20;;;;;;;17.45;9.40;;;;;;;1.77;97.45;95668.25;5106692;27;20561;-76
2022/11/14 05:10:46;;;;;;;19.45;7.07;;;;;;;1.79;97.48;95660.78;5108664;28;20197;-76
2022/11/14 05:13:14;;;;;;;33.35;10.32;;;;;;;1.54;99.24;95663.91;5116261;28;20234;-77
2022/11/14 05:15:41;;;;;;;38.20;15.27;;;;;;;1.45;99.82;95659.25;5117575;28;20342;-76
2022/11/14 05:18:08;;;;;;;55.65;20.38;;;;;;;1.46;100.00;95671.53;5100989;28;20799;-75
2022/11/14 05:20:35;;;;;;;61.40;22.15;;;;;;;1.42;100.00;95674.69;5104171;28;20259;-75
2022/11/14 05:23:01;;;;;;;49.92;19.88;;;;;;;1.30;100.00;95681.97;5101158;28;20206;-75
2022/11/14 05:25:30;;;;;;;53.70;19.27;;;;;;;1.25;100.00;95691.75;5096316;28;20206;-75
2022/11/14 05:27:57;;;;;;;39.08;19.00;;;;;;;1.63;100.00;95683.00;5111565;28;20259;-76
2022/11/14 05:30:25;;;;;;;52.95;21.75;;;;;;;2.04;100.00;95687.03;5111956;28;20205;-76
2022/11/14 05:32:52;;;;;;;49.28;21.92;;;;;;;2.29;100.00;95681.19;5110605;27;20233;-75
2022/11/14 05:35:19;;;;;;;44.67;20.48;;;;;;;2.48;100.00;95685.13;5111816;28;20233;-75
2022/11/14 05:37:45;;;;;;;24.38;9.32;;;;;;;2.41;100.00;95689.88;5111591;28;20206;-75
2022/11/14 05:40:12;;;;;;;13.88;7.07;;;;;;;2.61;100.00;95678.59;5112072;28;20202;-75
2022/11/14 05:42:39;;;;;;;13.55;7.53;;;;;;;2.78;99.66;95680.13;5111943;28;20224;-79
2022/11/14 05:45:07;;;;;;;22.60;7.28;;;;;;;3.04;98.45;95677.69;5111348;28;20201;-75
2022/11/14 05:47:35;;;;;;;12.45;6.28;;;;;;;3.13;96.75;95684.22;5112096;28;20548;-79
2022/11/14 05:50:02;;;;;;;16.58;7.68;;;;;;;3.00;97.03;95677.41;5111891;27;20201;-79
2022/11/14 05:52:29;;;;;;;12.65;5.95;;;;;;;2.99;97.15;95680.34;5111672;27;20206;-74
2022/11/14 05:54:55;;;;;;;18.15;7.70;;;;;;;2.84;98.13;95684.47;5107282;28;20233;-76
2022/11/14 05:57:22;;;;;;;11.32;5.55;;;;;;;3.08;98.52;95684.97;5103971;28;20223;-75
2022/11/14 05:59:49;;;;;;;12.13;6.93;;;;;;;3.30;97.95;95681.38;5111486;28;20205;-75
2022/11/14 06:02:15;;;;;;;11.98;6.57;;;;;;;3.37;97.53;95682.78;5124146;27;20208;-76
2022/11/14 06:04:44;;;;;;;20.40;9.80;;;;;;;3.44;97.53;95683.38;5093301;27;20214;-76
2022/11/14 06:07:10;;;;;;;13.77;7.28;;;;;;;3.36;96.60;95681.19;5091118;28;20255;-76
2022/11/14 06:09:37;;;;;;;13.95;5.40;;;;;;;3.45;96.25;95690.34;5090427;28;20251;-79
2022/11/14 06:12:06;;;;;;;13.82;6.45;;;;;;;3.12;96.33;95695.97;5091984;28;20206;-76
2022/11/14 06:14:33;;;;;;;8.88;4.20;;;;;;;2.49;98.42;95708.16;5110780;28;20546;-74
2022/11/14 06:17:00;;;;;;;8.50;4.68;;;;;;;2.52;100.00;95701.50;5111544;28;20720;-75
2022/11/14 06:19:26;;;;;;;8.55;4.45;;;;;;;2.57;100.00;95710.41;5118106;27;20213;-75
2022/11/14 06:21:55;;;;;;;9.50;5.18;;;;;;;2.22;100.00;95707.28;5104467;27;20236;-76
2022/11/14 06:24:21;;;;;;;6.07;3.63;;;;;;;2.46;100.00;95703.31;5098130;28;20590;-74
2022/11/14 06:26:48;;;;;;;10.63;4.78;;;;;;;2.53;100.00;95703.94;5111079;28;20233;-74
2022/11/14 06:29:15;;;;;;;12.65;6.82;;;;;;;2.51;100.00;95708.72;5111217;28;20290;-75
2022/11/14 06:31:41;;;;;;;12.00;5.45;;;;;;;2.99;100.00;95704.41;5111135;28;20238;-76
2022/11/14 06:34:08;;;;;;;23.50;9.93;;;;;;;3.44;100.00;95704.78;5111209;28;20768;-77
2022/11/14 06:36:35;;;;;;;13.88;7.97;;;;;;;3.70;98.94;95702.28;5109266;27;20210;-78
2022/11/14 06:39:03;;;;;;;22.60;9.25;;;;;;;3.96;97.54;95690.69;5116975;27;20197;-77
2022/11/14 06:41:30;;;;;;;15.32;7.28;;;;;;;4.10;97.02;95691.03;5101430;27;20256;-76
2022/11/14 06:43:57;;;;;;;12.90;5.88;;;;;;;4.06;97.28;95688.06;5090282;28;20283;-75
2022/11/14 06:46:23;;;;;;;16.50;7.13;;;;;;;4.40;96.37;95690.34;5090222;28;20608;-74
2022/11/14 06:48:51;;;;;;;18.13;7.25;;;;;;;4.48;94.13;95687.19;5090203;28;20202;-81
2022/11/14 06:51:19;;;;;;;18.17;7.90;;;;;;;4.50;94.26;95690.41;5105838;28;20293;-74
2022/11/14 06:53:45;;;;;;;13.38;7.32;;;;;;;4.44;94.19;95680.72;5110601;28;20233;-74
2022/11/14 06:56:15;;;;;;;15.95;8.20;;;;;;;4.46;94.07;95681.25;5110451;28;20205;-74
2022/11/14 06:58:44;;;;;;;10.13;7.20;;;;;;;4.70;93.67;95685.09;5110608;28;20206;-76
2022/11/14 07:01:13;;;;;;;14.85;7.88;;;;;;;4.83;92.63;95681.91;5109154;28;20282;-77
2022/11/14 07:03:40;;;;;;;16.27;8.00;;;;;;;5.12;91.11;95676.03;5110787;28;20262;-77
2022/11/14 07:06:08;;;;;;;21.83;8.90;;;;;;;4.97;91.16;95669.59;5110325;28;20201;-77
2022/11/14 07:08:35;;;;;;;12.60;7.55;;;;;;;5.09;91.65;95671.19;5099865;28;20232;-76
2022/11/14 07:11:02;;;;;;;19.48;7.45;;;;;;;5.13;91.69;95677.66;5101775;28;20258;-75
2022/11/14 07:13:31;;;;;;;16.40;8.00;;;;;;;4.99;90.44;95678.19;5109768;28;20636;-75
2022/11/14 07:15:58;;;;;;;11.35;7.00;;;;;;;4.77;91.28;95672.25;5107931;28;20685;-74
2022/11/14 07:18:25;;;;;;;14.82;7.97;;;;;;;4.97;92.25;95680.31;5109788;28;20656;-76
2022/11/14 07:20:58;;;;;;;18.25;9.35;;;;;;;4.68;92.18;95679.19;5109932;28;20205;-75
2022/11/14 07:23:24;;;;;;;20.23;10.07;;;;;;;4.71;92.90;95680.53;5097509;28;20297;-75
2022/11/14 07:25:52;;;;;;;21.02;9.48;;;;;;;4.84;93.46;95680.84;5089096;28;20240;-77
2022/11/14 07:28:19;;;;;;;17.13;8.35;;;;;;;5.12;92.04;95668.78;5101683;28;20267;-77
2022/11/14 07:30:47;;;;;;;14.73;8.57;;;;;;;5.19;91.49;95677.41;5109715;28;20213;-76
2022/11/14 07:33:14;;;;;;;19.35;8.45;;;;;;;5.35;91.12;95680.88;5109488;28;20324;-76
2022/11/14 07:35:40;;;;;;;18.45;9.45;;;;;;;5.63;90.72;95672.28;5109704;28;20233;-76
2022/11/14 07:38:07;;;;;;;17.23;8.32;;;;;;;5.63;89.37;95672.28;5109387;28;20598;-75
2022/11/14 07:40:34;;;;;;;19.70;10.52;;;;;;;5.91;89.20;95667.44;5109249;28;20210;-76
2022/11/14 07:43:04;;;;;;;17.83;8.07;;;;;;;5.70;87.51;95656.69;5109313;28;20290;-78
2022/11/14 07:45:31;;;;;;;17.85;9.40;;;;;;;5.55;87.50;95666.66;5109862;28;20221;-75
2022/11/14 07:48:02;;;;;;;16.85;9.23;;;;;;;5.45;89.07;95656.72;5108901;28;20719;-74
2022/11/14 07:50:32;;;;;;;20.77;8.80;;;;;;;5.76;89.79;95659.34;5110240;28;20205;-75
2022/11/14 07:52:58;;;;;;;13.18;7.85;;;;;;;5.88;87.73;95663.38;5108132;28;20824;-74
2022/11/14 07:55:29;;;;;;;20.75;9.32;;;;;;;6.11;87.46;95656.63;5108936;28;20229;-75
2022/11/14 07:57:59;;;;;;;19.55;9.85;;;;;;;6.49;86.28;95654.31;5112249;27;20605;-78
2022/11/14 08:00:30;;;;;;;19.02;9.77;;;;;;;6.62;85.35;95656.41;5109417;27;20203;-78
2022/11/14 08:02:56;;;;;;;21.85;10.32;;;;;;;6.60;85.14;95654.00;5091895;28;20210;-76
2022/11/14 08:05:28;;;;;;;21.60;9.63;;;;;;;6.11;85.66;95662.00;5096923;28;20571;-75
2022/11/14 08:07:57;;;;;;;22.00;9.90;;;;;;;6.01;84.50;95657.44;5089140;28;20252;-76
2022/11/14 08:10:24;;;;;;;19.48;9.13;;;;;;;5.66;86.40;95661.00;5088673;28;20205;-74
2022/11/14 08:12:58;;;;;;;22.80;11.30;;;;;;;5.83;89.56;95655.31;5088363;28;20264;-76
2022/11/14 08:15:27;;;;;;;15.77;8.93;;;;;;;6.02;86.12;95648.31;5095142;28;20790;-78
2022/11/14 08:17:57;;;;;;;20.35;9.75;;;;;;;6.09;86.87;95642.66;5109369;28;20205;-76
2022/11/14 08:20:25;;;;;;;22.88;10.23;;;;;;;6.56;86.90;95652.16;5109805;28;20233;-75
2022/11/14 08:23:02;;;;;;;23.23;11.60;;;;;;;6.55;86.33;95650.53;5105797;28;20201;-75
2022/11/14 08:25:28;;;;;;;25.60;10.75;;;;;;;6.84;84.73;95650.63;5108515;28;20360;-75
2022/11/14 08:27:57;;;;;;;24.88;11.38;;;;;;;6.63;83.13;95652.63;5109276;28;20208;-74
2022/11/14 08:30:27;;;;;;;25.33;10.80;;;;;;;6.72;83.62;95648.28;5111368;28;20213;-74
2022/11/14 08:32:54;;;;;;;23.75;10.77;;;;;;;6.56;83.93;95646.78;5102656;27;20257;-77
2022/11/14 08:35:22;;;;;;;19.33;10.88;;;;;;;6.35;84.95;95651.44;5104982;28;20290;-75
2022/11/14 08:37:49;;;;;;;23.88;10.25;;;;;;;6.27;86.12;95639.38;5108941;28;20198;-77
2022/11/14 08:40:17;;;;;;;24.33;11.75;;;;;;;6.91;84.87;95638.47;5122397;28;20273;-78
2022/11/14 08:42:47;;;;;;;22.65;10.35;;;;;;;7.22;83.13;95638.28;5117024;28;20210;-77
2022/11/14 08:45:14;;;;;;;34.97;11.88;;;;;;;6.90;82.56;95641.44;5123501;28;20198;-77
2022/11/14 08:47:50;;;;;;;26.77;11.35;;;;;;;6.67;82.82;95629.47;5108716;28;20259;-77
2022/11/14 08:50:20;;;;;;;31.00;13.38;;;;;;;7.44;82.67;95642.13;5108396;28;20250;-78
2022/11/14 08:52:52;;;;;;;23.55;10.75;;;;;;;7.20;81.38;95629.66;5111409;28;20835;-77
2022/11/14 08:55:20;;;;;;;20.88;11.38;;;;;;;7.20;81.42;95633.16;5109833;28;20263;-77
2022/11/14 08:57:47;;;;;;;26.13;11.90;;;;;;;6.71;83.10;95631.31;5105578;28;20198;-77
2022/11/14 09:00:15;;;;;;;21.80;11.32;;;;;;;6.45;84.36;95634.41;5110659;28;20193;-78
2022/11/14 09:02:48;;;;;;;26.98;13.40;;;;;;;6.31;85.43;95618.88;5120059;27;20293;-77
2022/11/14 09:05:21;;;;;;;23.63;11.05;;;;;;;7.05;83.20;95622.50;5113161;28;20209;-77
2022/11/14 09:07:48;;;;;;;20.65;9.73;;;;;;;6.88;82.92;95605.91;5113101;28;20306;-77
2022/11/14 09:10:15;;;;;;;23.42;12.15;;;;;;;6.94;82.79;95605.59;5112787;28;20609;-77
2022/11/14 09:12:43;;;;;;;25.08;11.48;;;;;;;6.67;83.74;95602.56;5106985;28;20597;-76
2022/11/14 09:15:16;;;;;;;29.48;12.32;;;;;;;6.72;83.39;95608.69;5102998;28;20763;-76
2022/11/14 09:17:43;;;;;;;22.48;10.68;;;;;;;6.86;82.75;95598.09;5113150;27;20668;-75
2022/11/14 09:20:12;;;;;;;19.80;9.60;;;;;;;6.75;83.43;95597.38;5112652;28;20212;-75
2022/11/14 09:22:39;;;;;;;26.23;11.90;;;;;;;7.01;82.54;95586.41;5124883;27;20598;-77
2022/11/14 09:25:06;;;;;;;18.00;9.27;;;;;;;6.68;83.43;95585.31;5111668;28;20564;-77
2022/11/14 09:27:33;;;;;;;23.83;10.38;;;;;;;6.57;84.19;95578.38;5119445;27;20202;-77
2022/11/14 09:30:01;;;;;;;21.13;10.75;;;;;;;6.88;84.27;95579.78;5091901;28;20210;-76
2022/11/14 09:32:28;;;;;;;21.98;10.65;;;;;;;7.33;83.07;95577.81;5091669;28;20234;-78
2022/11/14 09:34:55;;;;;;;22.20;10.23;;;;;;;7.08;82.64;95578.84;5104881;28;20290;-77
2022/11/14 09:37:22;;;;;;;22.75;9.38;;;;;;;7.03;82.72;95576.97;5111957;28;20198;-79
2022/11/14 09:39:48;;;;;;;33.00;12.60;;;;;;;7.31;82.25;95567.31;5111856;28;20745;-78
2022/11/14 09:42:40;;;;;;;25.80;9.45;;;;;;;7.58;80.78;95566.78;5111399;27;20668;-76
2022/11/14 09:45:12;;;;;;;28.83;13.07;;;;;;;7.61;80.21;95571.59;5098672;27;20609;-77
2022/11/14 09:47:43;;;;;;;27.77;11.70;;;;;;;7.93;80.18;95567.47;5112004;28;20742;-78
2022/11/14 09:50:14;;;;;;;23.90;11.32;;;;;;;8.19;78.81;95560.69;5111552;28;20557;-78
2022/11/14 09:52:44;;;;;;;27.58;12.38;;;;;;;8.13;78.15;95559.16;5111443;28;20205;-79
2022/11/14 09:55:14;;;;;;;22.10;11.85;;;;;;;7.76;79.89;95557.16;5111390;28;20308;-76
2022/11/14 09:57:42;;;;;;;19.60;9.52;;;;;;;7.95;79.02;95554.50;5111222;27;20593;-78
2022/11/14 10:00:16;;;;;;;23.05;9.90;;;;;;;7.84;79.31;95549.22;5111666;27;20229;-77
2022/11/14 10:02:56;;;;;;;24.02;11.65;;;;;;;7.94;79.21;95542.09;5123693;27;20635;-76
2022/11/14 10:05:39;;;;;;;29.45;12.90;;;;;;;7.89;79.30;95548.38;5092572;28;20206;-75
2022/11/14 10:08:37;;;;;;;27.63;11.35;;;;;;;8.26;79.05;95533.34;5111119;28;20247;-76
2022/11/14 10:11:09;;;;;;;22.27;11.60;;;;;;;8.17;78.21;95531.28;5093869;28;20207;-78
2022/11/14 10:14:20;;;;;;;30.02;13.02;;;;;;;8.57;77.78;95522.97;5099692;28;20202;-75
2022/11/14 10:16:58;;;;;;;21.48;10.48;;;;;;;8.34;77.40;95516.50;5089605;28;20240;-78
2022/11/14 10:19:33;;;;;;;31.73;13.50;;;;;;;8.34;77.89;95516.50;5111441;28;20197;-79
2022/11/14 10:22:16;;;;;;;18.33;10.52;;;;;;;8.54;77.74;95517.03;5110700;28;20346;-76
2022/11/14 10:25:24;;;;;;;25.60;11.25;;;;;;;8.59;76.93;95509.97;5099760;28;20749;-80
2022/11/14 10:28:05;;;;;;;28.30;10.23;;;;;;;8.54;77.77;95508.13;5081937;27;20197;-77
2022/11/14 10:30:40;;;;;;;23.13;11.88;;;;;;;8.41;78.08;95498.88;5100936;27;20309;-78
2022/11/14 10:33:25;;;;;;;24.38;11.07;;;;;;;8.17;79.03;95498.09;5121483;27;20293;-79
2022/11/14 10:35:57;;;;;;;21.77;10.20;;;;;;;8.43;78.83;95493.19;5110562;27;20221;-77
2022/11/14 10:38:29;;;;;;;19.90;10.40;;;;;;;8.72;77.85;95484.91;5110823;28;20656;-76
2022/11/14 10:41:01;;;;;;;23.00;11.88;;;;;;;8.95;76.63;95481.28;5110901;28;20198;-79
2022/11/14 10:43:33;;;;;;;25.17;11.45;;;;;;;9.05;76.03;95483.00;5112638;27;20707;-79
2022/11/14 10:46:05;;;;;;;28.08;13.10;;;;;;;9.18;75.87;95480.34;5111106;27;20210;-78
2022/11/14 10:48:37;;;;;;;31.00;12.35;;;;;;;9.56;75.64;95469.38;5089765;28;20281;-78
2022/11/14 10:51:08;;;;;;;17.02;10.25;;;;;;;9.61;74.28;95463.84;5103989;28;20262;-79
2022/11/14 10:53:47;;;;;;;30.42;12.05;;;;;;;9.47;74.59;95461.16;5116790;27;20305;-77
2022/11/14 10:56:14;;;;;;;23.38;11.82;;;;;;;9.60;74.43;95459.53;5099610;27;20673;-76
2022/11/14 10:58:40;;;;;;;21.70;11.98;;;;;;;9.63;74.68;95459.75;5090163;28;20289;-77
2022/11/14 11:01:33;;;;;;;18.90;10.98;;;;;;;9.37;75.06;95465.94;5089946;28;20210;-77
2022/11/14 11:04:12;;;;;;;25.75;12.32;;;;;;;9.26;75.36;95460.75;5102761;28;20202;-80
2022/11/14 11:06:39;;;;;;;24.67;11.80;;;;;;;9.27;75.69;95451.53;5104147;28;20664;-77
2022/11/14 11:11:57;;;;;;;27.67;12.57;;;;;;;9.59;74.71;95447.13;5110110;28;20282;-76
2022/11/14 11:14:23;;;;;;;30.13;12.90;;;;;;;9.78;73.58;95445.13;5110201;28;20240;-77
2022/11/14 11:17:07;;;;;;;29.02;12.45;;;;;;;10.01;73.46;95447.88;5109801;27;20236;-76
2022/11/14 11:19:36;;;;;;;31.65;14.25;;;;;;;10.32;72.34;95443.44;5097118;28;20651;-76
2022/11/14 11:22:02;;;;;;;23.75;11.90;;;;;;;10.16;72.14;95442.13;5108410;28;20577;-76
2022/11/14 11:24:34;;;;;;;26.48;13.70;;;;;;;10.40;71.75;95431.88;5088538;28;20210;-77
2022/11/14 11:27:22;;;;;;;30.25;12.13;;;;;;;10.37;71.34;95429.78;5104805;28;20206;-77
2022/11/14 11:30:02;;;;;;;36.72;11.63;;;;;;;10.46;71.24;95427.94;5121352;27;20280;-75
2022/11/14 11:32:29;;;;;;;29.58;12.73;;;;;;;10.52;70.89;95432.13;5089289;27;20237;-78
2022/11/14 11:35:00;;;;;;;20.30;10.60;;;;;;;10.33;71.22;95428.78;5088769;28;20630;-78
2022/11/14 11:37:30;;;;;;;26.77;12.18;;;;;;;10.49;71.13;95429.25;5088901;28;20586;-77
2022/11/14 11:40:01;;;;;;;27.05;12.25;;;;;;;10.75;70.20;95429.44;5104322;28;20194;-77